sensor_id;sensor_type;location;lat;lon;timestamp;pressure;altitude;pressure_sealevel;temperature;humidity
6134;BME280;3098;42.678;23.364;2024-02-26T00:01:33;94550.19;;;7.00;80.67
6134;BME280;3098;42.678;23.364;2024-02-26T00:03:59;94552.31;;;6.98;80.52
6134;BME280;3098;42.678;23.364;2024-02-26T00:06:27;94552.59;;;6.97;80.88
6134;BME280;3098;42.678;23.364;2024-02-26T00:08:52;94548.13;;;6.97;80.20
6134;BME280;3098;42.678;23.364;2024-02-26T00:11:18;94547.06;;;6.98;79.88
6134;BME280;3098;42.678;23.364;2024-02-26T00:13:43;94541.03;;;6.98;80.99
6134;BME280;3098;42.678;23.364;2024-02-26T00:16:09;94533.91;;;6.98;80.66
6134;BME280;3098;42.678;23.364;2024-02-26T00:18:35;94550.97;;;7.01;80.03
6134;BME280;3098;42.678;23.364;2024-02-26T00:21:00;94546.78;;;7.00;80.72
6134;BME280;3098;42.678;23.364;2024-02-26T00:23:26;94539.69;;;7.00;79.91
6134;BME280;3098;42.678;23.364;2024-02-26T00:25:52;94542.97;;;6.92;80.51
6134;BME280;3098;42.678;23.364;2024-02-26T00:28:18;94538.50;;;6.92;81.11
6134;BME280;3098;42.678;23.364;2024-02-26T00:30:46;94532.94;;;6.94;80.83
6134;BME280;3098;42.678;23.364;2024-02-26T00:33:11;94539.84;;;6.90;80.79
6134;BME280;3098;42.678;23.364;2024-02-26T00:35:37;94538.50;;;6.92;81.00
6134;BME280;3098;42.678;23.364;2024-02-26T00:38:03;94523.50;;;6.93;80.98
6134;BME280;3098;42.678;23.364;2024-02-26T00:40:29;94515.94;;;6.91;81.14
6134;BME280;3098;42.678;23.364;2024-02-26T00:42:55;94514.56;;;6.94;80.76
6134;BME280;3098;42.678;23.364;2024-02-26T00:45:20;94519.72;;;6.99;81.44
6134;BME280;3098;42.678;23.364;2024-02-26T00:47:46;94518.16;;;6.98;80.98
6134;BME280;3098;42.678;23.364;2024-02-26T00:50:13;94512.69;;;6.94;81.09
6134;BME280;3098;42.678;23.364;2024-02-26T00:52:38;94504.81;;;6.94;80.59
6134;BME280;3098;42.678;23.364;2024-02-26T00:55:04;94504.94;;;7.03;80.87
6134;BME280;3098;42.678;23.364;2024-02-26T00:57:31;94504.44;;;7.01;80.92
6134;BME280;3098;42.678;23.364;2024-02-26T00:59:57;94506.09;;;6.97;80.29
6134;BME280;3098;42.678;23.364;2024-02-26T01:02:22;94500.84;;;6.97;79.57
6134;BME280;3098;42.678;23.364;2024-02-26T01:04:48;94497.75;;;6.95;79.83
6134;BME280;3098;42.678;23.364;2024-02-26T01:07:14;94493.09;;;7.06;79.79
6134;BME280;3098;42.678;23.364;2024-02-26T01:09:39;94500.34;;;7.09;80.61
6134;BME280;3098;42.678;23.364;2024-02-26T01:12:05;94499.13;;;7.06;80.71
6134;BME280;3098;42.678;23.364;2024-02-26T01:14:31;94503.28;;;7.07;80.74
6134;BME280;3098;42.678;23.364;2024-02-26T01:16:56;94497.72;;;7.09;80.46
6134;BME280;3098;42.678;23.364;2024-02-26T01:19:22;94497.44;;;7.10;80.00
6134;BME280;3098;42.678;23.364;2024-02-26T01:21:47;94500.34;;;7.09;80.42
6134;BME280;3098;42.678;23.364;2024-02-26T01:24:13;94498.34;;;7.06;80.96
6134;BME280;3098;42.678;23.364;2024-02-26T01:26:39;94502.41;;;7.12;80.04
6134;BME280;3098;42.678;23.364;2024-02-26T01:29:04;94494.31;;;6.94;81.00
6134;BME280;3098;42.678;23.364;2024-02-26T01:31:30;94490.53;;;6.87;82.27
6134;BME280;3098;42.678;23.364;2024-02-26T01:33:56;94493.84;;;6.92;82.02
6134;BME280;3098;42.678;23.364;2024-02-26T01:36:22;94485.38;;;6.96;81.45
6134;BME280;3098;42.678;23.364;2024-02-26T01:38:47;94487.72;;;6.97;81.85
6134;BME280;3098;42.678;23.364;2024-02-26T01:41:14;94488.69;;;7.01;82.06
6134;BME280;3098;42.678;23.364;2024-02-26T01:43:40;94490.16;;;7.07;81.11
6134;BME280;3098;42.678;23.364;2024-02-26T01:46:07;94485.47;;;7.04;81.19
6134;BME280;3098;42.678;23.364;2024-02-26T01:48:36;94489.38;;;7.07;81.53
6134;BME280;3098;42.678;23.364;2024-02-26T01:51:02;94480.22;;;7.04;80.79
6134;BME280;3098;42.678;23.364;2024-02-26T01:53:27;94481.56;;;7.02;81.44
6134;BME280;3098;42.678;23.364;2024-02-26T01:55:53;94479.94;;;7.06;81.08
6134;BME280;3098;42.678;23.364;2024-02-26T01:58:19;94473.81;;;7.10;81.30
6134;BME280;3098;42.678;23.364;2024-02-26T02:00:45;94479.94;;;7.20;80.71
6134;BME280;3098;42.678;23.364;2024-02-26T02:03:11;94473.13;;;7.18;80.93
6134;BME280;3098;42.678;23.364;2024-02-26T02:05:37;94479.16;;;7.19;80.53
6134;BME280;3098;42.678;23.364;2024-02-26T02:08:09;94475.28;;;7.16;80.35
6134;BME280;3098;42.678;23.364;2024-02-26T02:10:36;94476.06;;;7.17;80.82
6134;BME280;3098;42.678;23.364;2024-02-26T02:13:03;94481.09;;;7.27;80.42
6134;BME280;3098;42.678;23.364;2024-02-26T02:15:28;94472.25;;;7.23;80.26
6134;BME280;3098;42.678;23.364;2024-02-26T02:17:54;94467.47;;;7.25;80.94
6134;BME280;3098;42.678;23.364;2024-02-26T02:20:24;94463.75;;;7.26;81.06
6134;BME280;3098;42.678;23.364;2024-02-26T02:22:50;94464.84;;;7.25;80.83
6134;BME280;3098;42.678;23.364;2024-02-26T02:25:16;94471.94;;;7.25;80.13
6134;BME280;3098;42.678;23.364;2024-02-26T02:27:42;94471.75;;;7.21;80.78
6134;BME280;3098;42.678;23.364;2024-02-26T02:30:09;94478.28;;;7.24;79.98
6134;BME280;3098;42.678;23.364;2024-02-26T02:32:37;94470.00;;;7.30;80.50
6134;BME280;3098;42.678;23.364;2024-02-26T02:35:05;94470.97;;;7.34;80.33
6134;BME280;3098;42.678;23.364;2024-02-26T02:37:30;94471.44;;;7.23;80.29
6134;BME280;3098;42.678;23.364;2024-02-26T02:39:56;94476.31;;;7.29;80.07
6134;BME280;3098;42.678;23.364;2024-02-26T02:42:23;94468.53;;;7.38;80.36
6134;BME280;3098;42.678;23.364;2024-02-26T02:44:49;94474.84;;;7.37;79.61
6134;BME280;3098;42.678;23.364;2024-02-26T02:47:15;94474.84;;;7.37;80.19
6134;BME280;3098;42.678;23.364;2024-02-26T02:49:40;94476.50;;;7.33;79.86
6134;BME280;3098;42.678;23.364;2024-02-26T02:52:06;94476.03;;;7.31;80.14
6134;BME280;3098;42.678;23.364;2024-02-26T02:54:32;94481.38;;;7.26;80.67
6134;BME280;3098;42.678;23.364;2024-02-26T02:56:57;94476.31;;;7.29;80.91
6134;BME280;3098;42.678;23.364;2024-02-26T02:59:23;94489.66;;;7.33;80.52
6134;BME280;3098;42.678;23.364;2024-02-26T03:01:51;94486.84;;;7.29;81.20
6134;BME280;3098;42.678;23.364;2024-02-26T03:04:17;94488.59;;;7.34;80.06
6134;BME280;3098;42.678;23.364;2024-02-26T03:06:43;94482.53;;;7.33;80.07
6134;BME280;3098;42.678;23.364;2024-02-26T03:09:08;94480.53;;;7.30;80.82
6134;BME280;3098;42.678;23.364;2024-02-26T03:11:34;94501.94;;;7.37;80.84
6134;BME280;3098;42.678;23.364;2024-02-26T03:14:00;94499.31;;;7.37;80.12
6134;BME280;3098;42.678;23.364;2024-02-26T03:16:25;94492.28;;;7.33;80.63
6134;BME280;3098;42.678;23.364;2024-02-26T03:18:51;94491.41;;;7.37;80.31
6134;BME280;3098;42.678;23.364;2024-02-26T03:21:17;94483.53;;;7.37;80.55
6134;BME280;3098;42.678;23.364;2024-02-26T03:23:43;94484.50;;;7.28;81.19
6134;BME280;3098;42.678;23.364;2024-02-26T03:26:09;94483.44;;;7.29;80.66
6134;BME280;3098;42.678;23.364;2024-02-26T03:28:38;94469.63;;;7.23;80.50
6134;BME280;3098;42.678;23.364;2024-02-26T03:31:04;94468.63;;;7.19;81.42
6134;BME280;3098;42.678;23.364;2024-02-26T03:33:30;94472.84;;;7.20;81.25
6134;BME280;3098;42.678;23.364;2024-02-26T03:35:55;94466.63;;;7.16;80.50
6134;BME280;3098;42.678;23.364;2024-02-26T03:38:21;94471.66;;;7.12;80.80
6134;BME280;3098;42.678;23.364;2024-02-26T03:40:46;94475.56;;;7.15;80.96
6134;BME280;3098;42.678;23.364;2024-02-26T03:43:11;94470.09;;;7.11;80.72
6134;BME280;3098;42.678;23.364;2024-02-26T03:45:38;94463.56;;;7.09;81.72
6134;BME280;3098;42.678;23.364;2024-02-26T03:48:03;94466.00;;;7.05;81.62
6134;BME280;3098;42.678;23.364;2024-02-26T03:50:29;94468.06;;;7.08;81.09
6134;BME280;3098;42.678;23.364;2024-02-26T03:52:55;94461.63;;;7.01;80.90
6134;BME280;3098;42.678;23.364;2024-02-26T03:55:23;94453.56;;;6.97;81.72
6134;BME280;3098;42.678;23.364;2024-02-26T03:57:51;94462.31;;;6.92;81.71
6134;BME280;3098;42.678;23.364;2024-02-26T04:00:17;94461.25;;;6.93;81.63
6134;BME280;3098;42.678;23.364;2024-02-26T04:02:44;94461.56;;;6.92;81.46
6134;BME280;3098;42.678;23.364;2024-02-26T04:05:13;94468.44;;;6.88;82.54
6134;BME280;3098;42.678;23.364;2024-02-26T04:07:39;94461.53;;;6.78;82.82
6134;BME280;3098;42.678;23.364;2024-02-26T04:10:10;94454.63;;;6.82;81.94
6134;BME280;3098;42.678;23.364;2024-02-26T04:12:41;94463.41;;;6.91;81.58
6134;BME280;3098;42.678;23.364;2024-02-26T04:15:08;94454.13;;;6.94;81.76
6134;BME280;3098;42.678;23.364;2024-02-26T04:17:34;94456.19;;;6.97;81.86
6134;BME280;3098;42.678;23.364;2024-02-26T04:20:00;94447.84;;;6.95;80.99
6134;BME280;3098;42.678;23.364;2024-02-26T04:22:26;94444.41;;;6.94;81.58
6134;BME280;3098;42.678;23.364;2024-02-26T04:24:51;94443.34;;;6.96;81.59
6134;BME280;3098;42.678;23.364;2024-02-26T04:27:17;94440.03;;;6.90;81.41
6134;BME280;3098;42.678;23.364;2024-02-26T04:29:42;94447.72;;;6.86;82.29
6134;BME280;3098;42.678;23.364;2024-02-26T04:32:08;94444.78;;;6.88;81.20
6134;BME280;3098;42.678;23.364;2024-02-26T04:34:33;94438.00;;;6.87;80.86
6134;BME280;3098;42.678;23.364;2024-02-26T04:36:59;94450.03;;;6.88;81.36
6134;BME280;3098;42.678;23.364;2024-02-26T04:39:24;94453.09;;;6.81;80.81
6134;BME280;3098;42.678;23.364;2024-02-26T04:41:51;94447.25;;;6.71;80.51
6134;BME280;3098;42.678;23.364;2024-02-26T04:44:16;94446.75;;;6.68;80.42
6134;BME280;3098;42.678;23.364;2024-02-26T04:46:42;94455.50;;;6.64;80.78
6134;BME280;3098;42.678;23.364;2024-02-26T04:49:07;94450.59;;;6.43;81.44
6134;BME280;3098;42.678;23.364;2024-02-26T04:51:33;94455.84;;;6.43;81.29
6134;BME280;3098;42.678;23.364;2024-02-26T04:53:58;94457.38;;;6.44;81.78
6134;BME280;3098;42.678;23.364;2024-02-26T04:56:24;94460.41;;;6.52;81.13
6134;BME280;3098;42.678;23.364;2024-02-26T04:58:50;94457.59;;;6.48;81.78
6134;BME280;3098;42.678;23.364;2024-02-26T05:01:16;94452.75;;;6.55;81.16
6134;BME280;3098;42.678;23.364;2024-02-26T05:03:42;94456.50;;;6.49;81.16
6134;BME280;3098;42.678;23.364;2024-02-26T05:06:08;94471.00;;;6.47;81.70
6134;BME280;3098;42.678;23.364;2024-02-26T05:08:34;94463.00;;;6.38;81.77
6134;BME280;3098;42.678;23.364;2024-02-26T05:11:01;94454.72;;;6.31;82.12
6134;BME280;3098;42.678;23.364;2024-02-26T05:13:28;94473.19;;;6.26;81.71
6134;BME280;3098;42.678;23.364;2024-02-26T05:15:55;94477.97;;;6.05;82.67
6134;BME280;3098;42.678;23.364;2024-02-26T05:18:24;94482.16;;;6.06;83.39
6134;BME280;3098;42.678;23.364;2024-02-26T05:20:50;94493.91;;;6.08;83.40
6134;BME280;3098;42.678;23.364;2024-02-26T05:23:15;94496.09;;;6.20;82.61
6134;BME280;3098;42.678;23.364;2024-02-26T05:25:41;94495.63;;;6.18;82.70
6134;BME280;3098;42.678;23.364;2024-02-26T05:28:06;94493.97;;;6.22;82.82
6134;BME280;3098;42.678;23.364;2024-02-26T05:30:32;94500.63;;;6.33;82.33
6134;BME280;3098;42.678;23.364;2024-02-26T05:32:58;94494.75;;;6.22;82.90
6134;BME280;3098;42.678;23.364;2024-02-26T05:35:23;94502.53;;;6.28;82.38
6134;BME280;3098;42.678;23.364;2024-02-26T05:37:49;94514.16;;;6.40;82.33
6134;BME280;3098;42.678;23.364;2024-02-26T05:40:15;94503.56;;;6.45;82.11
6134;BME280;3098;42.678;23.364;2024-02-26T05:42:41;94513.63;;;6.57;81.49
6134;BME280;3098;42.678;23.364;2024-02-26T05:45:06;94513.66;;;6.71;81.35
6134;BME280;3098;42.678;23.364;2024-02-26T05:47:33;94515.72;;;6.74;81.01
6134;BME280;3098;42.678;23.364;2024-02-26T05:49:58;94518.44;;;6.83;80.47
6134;BME280;3098;42.678;23.364;2024-02-26T05:52:26;94515.13;;;6.91;81.12
6134;BME280;3098;42.678;23.364;2024-02-26T05:54:51;94510.56;;;6.97;79.89
6134;BME280;3098;42.678;23.364;2024-02-26T05:57:17;94515.25;;;7.00;80.71
6134;BME280;3098;42.678;23.364;2024-02-26T05:59:44;94523.94;;;7.14;80.35
6134;BME280;3098;42.678;23.364;2024-02-26T06:02:09;94515.34;;;7.22;80.03
6134;BME280;3098;42.678;23.364;2024-02-26T06:04:35;94519.56;;;7.23;79.97
6134;BME280;3098;42.678;23.364;2024-02-26T06:07:01;94527.22;;;7.33;79.09
6134;BME280;3098;42.678;23.364;2024-02-26T06:09:26;94532.47;;;7.33;79.32
6134;BME280;3098;42.678;23.364;2024-02-26T06:11:52;94529.38;;;7.45;78.25
6134;BME280;3098;42.678;23.364;2024-02-26T06:14:17;94525.97;;;7.45;78.56
6134;BME280;3098;42.678;23.364;2024-02-26T06:16:44;94537.53;;;7.44;78.22
6134;BME280;3098;42.678;23.364;2024-02-26T06:19:09;94534.13;;;7.57;78.11
6134;BME280;3098;42.678;23.364;2024-02-26T06:21:36;94537.72;;;7.61;76.88
6134;BME280;3098;42.678;23.364;2024-02-26T06:24:01;94535.22;;;7.70;77.69
6134;BME280;3098;42.678;23.364;2024-02-26T06:26:27;94527.41;;;7.64;76.53
6134;BME280;3098;42.678;23.364;2024-02-26T06:28:54;94542.59;;;7.68;77.59
6134;BME280;3098;42.678;23.364;2024-02-26T06:31:21;94528.47;;;7.77;76.36
6134;BME280;3098;42.678;23.364;2024-02-26T06:33:48;94537.22;;;7.86;76.57
6134;BME280;3098;42.678;23.364;2024-02-26T06:36:15;94538.97;;;7.91;76.77
6134;BME280;3098;42.678;23.364;2024-02-26T06:38:40;94540.25;;;7.94;76.97
6134;BME280;3098;42.678;23.364;2024-02-26T06:41:06;94538.19;;;7.91;77.09
6134;BME280;3098;42.678;23.364;2024-02-26T06:43:32;94530.38;;;7.99;76.86
6134;BME280;3098;42.678;23.364;2024-02-26T06:45:58;94534.16;;;8.07;76.28
6134;BME280;3098;42.678;23.364;2024-02-26T06:48:24;94537.22;;;8.00;75.99
6134;BME280;3098;42.678;23.364;2024-02-26T06:50:50;94544.25;;;8.13;75.52
6134;BME280;3098;42.678;23.364;2024-02-26T06:53:16;94533.06;;;8.22;75.29
6134;BME280;3098;42.678;23.364;2024-02-26T06:55:42;94534.41;;;8.19;75.56
6134;BME280;3098;42.678;23.364;2024-02-26T06:58:08;94531.78;;;8.19;75.81
6134;BME280;3098;42.678;23.364;2024-02-26T07:00:34;94531.03;;;8.05;76.12
6134;BME280;3098;42.678;23.364;2024-02-26T07:03:00;94540.28;;;8.16;74.55
6134;BME280;3098;42.678;23.364;2024-02-26T07:05:27;94538.31;;;8.22;74.76
6134;BME280;3098;42.678;23.364;2024-02-26T07:07:53;94539.53;;;8.38;74.34
6134;BME280;3098;42.678;23.364;2024-02-26T07:10:18;94535.72;;;8.30;73.58
6134;BME280;3098;42.678;23.364;2024-02-26T07:12:44;94544.22;;;8.41;72.82
6134;BME280;3098;42.678;23.364;2024-02-26T07:15:10;94550.88;;;8.61;73.10
6134;BME280;3098;42.678;23.364;2024-02-26T07:17:36;94547.97;;;8.49;73.42
6134;BME280;3098;42.678;23.364;2024-02-26T07:20:02;94549.00;;;8.62;73.51
6134;BME280;3098;42.678;23.364;2024-02-26T07:22:30;94553.13;;;8.76;72.44
6134;BME280;3098;42.678;23.364;2024-02-26T07:24:56;94544.09;;;8.69;71.69
6134;BME280;3098;42.678;23.364;2024-02-26T07:27:23;94568.94;;;8.99;71.59
6134;BME280;3098;42.678;23.364;2024-02-26T07:29:49;94561.66;;;9.04;71.92
6134;BME280;3098;42.678;23.364;2024-02-26T07:32:14;94552.19;;;9.03;70.14
6134;BME280;3098;42.678;23.364;2024-02-26T07:34:42;94549.03;;;9.24;70.83
6134;BME280;3098;42.678;23.364;2024-02-26T07:37:10;94554.91;;;9.52;69.31
6134;BME280;3098;42.678;23.364;2024-02-26T07:39:36;94564.34;;;9.53;68.62
6134;BME280;3098;42.678;23.364;2024-02-26T07:42:02;94559.09;;;9.62;68.78
6134;BME280;3098;42.678;23.364;2024-02-26T07:44:28;94553.97;;;9.56;68.88
6134;BME280;3098;42.678;23.364;2024-02-26T07:46:54;94559.75;;;9.67;69.07
6134;BME280;3098;42.678;23.364;2024-02-26T07:49:20;94551.81;;;9.67;68.92
6134;BME280;3098;42.678;23.364;2024-02-26T07:51:45;94560.19;;;9.61;68.27
6134;BME280;3098;42.678;23.364;2024-02-26T07:54:11;94562.09;;;9.69;69.03
6134;BME280;3098;42.678;23.364;2024-02-26T07:56:37;94561.78;;;9.79;69.19
6134;BME280;3098;42.678;23.364;2024-02-26T07:59:03;94552.66;;;9.85;69.06
6134;BME280;3098;42.678;23.364;2024-02-26T08:01:29;94558.88;;;10.07;67.31
6134;BME280;3098;42.678;23.364;2024-02-26T08:03:54;94552.53;;;10.16;67.30
6134;BME280;3098;42.678;23.364;2024-02-26T08:06:21;94546.47;;;10.24;66.64
6134;BME280;3098;42.678;23.364;2024-02-26T08:08:46;94536.72;;;10.42;66.08
6134;BME280;3098;42.678;23.364;2024-02-26T08:11:14;94546.69;;;10.54;66.26
6134;BME280;3098;42.678;23.364;2024-02-26T08:13:41;94547.00;;;10.44;67.00
6134;BME280;3098;42.678;23.364;2024-02-26T08:16:06;94541.84;;;10.65;65.93
6134;BME280;3098;42.678;23.364;2024-02-26T08:18:32;94549.91;;;10.86;65.25
6134;BME280;3098;42.678;23.364;2024-02-26T08:20:58;94548.13;;;11.07;65.78
6134;BME280;3098;42.678;23.364;2024-02-26T08:23:24;94540.50;;;11.53;63.26
6134;BME280;3098;42.678;23.364;2024-02-26T08:25:50;94543.91;;;11.15;63.36
6134;BME280;3098;42.678;23.364;2024-02-26T08:28:15;94552.53;;;11.41;63.04
6134;BME280;3098;42.678;23.364;2024-02-26T08:30:43;94549.13;;;11.41;63.80
6134;BME280;3098;42.678;23.364;2024-02-26T08:33:09;94542.16;;;11.66;63.47
6134;BME280;3098;42.678;23.364;2024-02-26T08:35:35;94534.56;;;11.94;62.23
6134;BME280;3098;42.678;23.364;2024-02-26T08:38:00;94547.44;;;12.04;61.54
6134;BME280;3098;42.678;23.364;2024-02-26T08:40:26;94541.31;;;12.33;60.41
6134;BME280;3098;42.678;23.364;2024-02-26T08:42:52;94543.09;;;12.96;59.33
6134;BME280;3098;42.678;23.364;2024-02-26T08:45:17;94542.59;;;13.14;57.80
6134;BME280;3098;42.678;23.364;2024-02-26T08:47:44;94539.75;;;12.86;57.18
6134;BME280;3098;42.678;23.364;2024-02-26T08:50:10;94549.50;;;13.40;57.83
6134;BME280;3098;42.678;23.364;2024-02-26T08:52:37;94548.31;;;13.38;56.72
6134;BME280;3098;42.678;23.364;2024-02-26T08:55:03;94550.97;;;13.50;55.90
6134;BME280;3098;42.678;23.364;2024-02-26T08:57:31;94545.75;;;13.41;56.54
6134;BME280;3098;42.678;23.364;2024-02-26T08:59:58;94541.03;;;13.83;54.49
6134;BME280;3098;42.678;23.364;2024-02-26T09:02:24;94544.00;;;13.57;54.52
6134;BME280;3098;42.678;23.364;2024-02-26T09:04:49;94544.75;;;13.33;56.27
6134;BME280;3098;42.678;23.364;2024-02-26T09:07:18;94543.16;;;13.20;55.19
6134;BME280;3098;42.678;23.364;2024-02-26T09:09:44;94537.88;;;13.32;55.11
6134;BME280;3098;42.678;23.364;2024-02-26T09:12:10;94531.84;;;12.99;55.20
6134;BME280;3098;42.678;23.364;2024-02-26T09:14:35;94538.91;;;13.52;54.67
6134;BME280;3098;42.678;23.364;2024-02-26T09:17:01;94542.16;;;12.79;56.74
6134;BME280;3098;42.678;23.364;2024-02-26T09:19:27;94538.56;;;12.96;56.95
6134;BME280;3098;42.678;23.364;2024-02-26T09:21:55;94528.28;;;13.52;54.58
6134;BME280;3098;42.678;23.364;2024-02-26T09:24:25;94524.88;;;13.76;54.46
6134;BME280;3098;42.678;23.364;2024-02-26T09:26:51;94524.41;;;13.87;53.54
6134;BME280;3098;42.678;23.364;2024-02-26T09:29:17;94529.50;;;13.30;54.52
6134;BME280;3098;42.678;23.364;2024-02-26T09:31:43;94527.94;;;13.91;53.65
6134;BME280;3098;42.678;23.364;2024-02-26T09:34:12;94522.72;;;13.21;55.58
6134;BME280;3098;42.678;23.364;2024-02-26T09:36:37;94525.34;;;13.21;55.52
6134;BME280;3098;42.678;23.364;2024-02-26T09:39:03;94518.25;;;13.12;55.85
6134;BME280;3098;42.678;23.364;2024-02-26T09:41:30;94516.63;;;12.75;56.28
6134;BME280;3098;42.678;23.364;2024-02-26T09:43:57;94524.97;;;13.31;55.51
6134;BME280;3098;42.678;23.364;2024-02-26T09:46:26;94534.81;;;13.43;54.20
6134;BME280;3098;42.678;23.364;2024-02-26T09:48:52;94525.88;;;13.59;53.72
6134;BME280;3098;42.678;23.364;2024-02-26T09:51:18;94518.56;;;13.56;52.91
6134;BME280;3098;42.678;23.364;2024-02-26T09:53:46;94522.19;;;13.40;53.42
6134;BME280;3098;42.678;23.364;2024-02-26T09:56:12;94525.84;;;13.47;53.81
6134;BME280;3098;42.678;23.364;2024-02-26T09:58:39;94515.00;;;13.65;52.96
6134;BME280;3098;42.678;23.364;2024-02-26T10:01:11;94508.59;;;13.78;52.08
6134;BME280;3098;42.678;23.364;2024-02-26T10:03:40;94521.75;;;13.38;52.64
6134;BME280;3098;42.678;23.364;2024-02-26T10:06:09;94518.25;;;13.12;53.41
6134;BME280;3098;42.678;23.364;2024-02-26T10:08:35;94514.69;;;13.42;52.80
6134;BME280;3098;42.678;23.364;2024-02-26T10:11:03;94521.66;;;13.58;51.00
6134;BME280;3098;42.678;23.364;2024-02-26T10:13:28;94512.00;;;13.78;51.02
6134;BME280;3098;42.678;23.364;2024-02-26T10:15:54;94509.00;;;13.92;50.88
6134;BME280;3098;42.678;23.364;2024-02-26T10:18:20;94511.34;;;13.94;50.52
6134;BME280;3098;42.678;23.364;2024-02-26T10:21:01;94493.94;;;14.08;50.28
6134;BME280;3098;42.678;23.364;2024-02-26T10:23:27;94495.53;;;13.97;50.99
6134;BME280;3098;42.678;23.364;2024-02-26T10:25:56;94493.09;;;14.32;49.69
6134;BME280;3098;42.678;23.364;2024-02-26T10:28:22;94498.47;;;14.48;49.54
6134;BME280;3098;42.678;23.364;2024-02-26T10:30:48;94492.16;;;14.00;50.66
6134;BME280;3098;42.678;23.364;2024-02-26T10:33:14;94492.00;;;13.81;51.05
6134;BME280;3098;42.678;23.364;2024-02-26T10:35:45;94485.25;;;14.64;49.11
6134;BME280;3098;42.678;23.364;2024-02-26T10:38:12;94469.47;;;14.71;48.66
6134;BME280;3098;42.678;23.364;2024-02-26T10:40:37;94481.97;;;14.55;48.25
6134;BME280;3098;42.678;23.364;2024-02-26T10:43:03;94479.41;;;14.59;48.06
6134;BME280;3098;42.678;23.364;2024-02-26T10:45:28;94475.22;;;14.45;48.88
6134;BME280;3098;42.678;23.364;2024-02-26T10:47:54;94476.91;;;14.50;48.38
6134;BME280;3098;42.678;23.364;2024-02-26T10:50:19;94476.75;;;14.18;49.86
6134;BME280;3098;42.678;23.364;2024-02-26T10:52:45;94464.84;;;14.28;49.58
6134;BME280;3098;42.678;23.364;2024-02-26T10:55:17;94456.31;;;14.35;49.78
6134;BME280;3098;42.678;23.364;2024-02-26T10:57:45;94469.78;;;14.42;48.25
6134;BME280;3098;42.678;23.364;2024-02-26T11:00:15;94473.41;;;14.49;48.74
6134;BME280;3098;42.678;23.364;2024-02-26T11:02:41;94476.22;;;14.13;49.16
6134;BME280;3098;42.678;23.364;2024-02-26T11:05:11;94464.13;;;13.63;50.92
6134;BME280;3098;42.678;23.364;2024-02-26T11:07:36;94469.72;;;13.85;49.52
6134;BME280;3098;42.678;23.364;2024-02-26T11:10:04;94479.38;;;13.78;49.82
6134;BME280;3098;42.678;23.364;2024-02-26T11:12:31;94462.78;;;13.81;49.91
6134;BME280;3098;42.678;23.364;2024-02-26T11:14:58;94448.81;;;14.24;48.83
6134;BME280;3098;42.678;23.364;2024-02-26T11:17:27;94453.66;;;14.35;48.62
6134;BME280;3098;42.678;23.364;2024-02-26T11:19:55;94449.81;;;14.32;49.10
6134;BME280;3098;42.678;23.364;2024-02-26T11:22:26;94458.66;;;14.36;48.43
6134;BME280;3098;42.678;23.364;2024-02-26T11:24:53;94456.91;;;14.56;48.22
6134;BME280;3098;42.678;23.364;2024-02-26T11:27:22;94451.53;;;14.68;48.07
6134;BME280;3098;42.678;23.364;2024-02-26T11:29:51;94453.75;;;14.66;47.51
6134;BME280;3098;42.678;23.364;2024-02-26T11:32:17;94455.59;;;13.81;49.23
6134;BME280;3098;42.678;23.364;2024-02-26T11:34:43;94457.25;;;13.12;51.33
6134;BME280;3098;42.678;23.364;2024-02-26T11:37:16;94446.97;;;13.11;51.83
6134;BME280;3098;42.678;23.364;2024-02-26T11:39:42;94452.38;;;13.14;52.23
6134;BME280;3098;42.678;23.364;2024-02-26T11:42:14;94456.03;;;13.83;49.55
6134;BME280;3098;42.678;23.364;2024-02-26T11:44:40;94440.72;;;13.93;49.28
6134;BME280;3098;42.678;23.364;2024-02-26T11:47:34;94442.59;;;13.52;50.20
6134;BME280;3098;42.678;23.364;2024-02-26T11:50:34;94447.28;;;13.83;50.17
6134;BME280;3098;42.678;23.364;2024-02-26T11:53:25;94444.59;;;13.95;48.82
6134;BME280;3098;42.678;23.364;2024-02-26T11:56:24;94439.44;;;13.87;49.92
6134;BME280;3098;42.678;23.364;2024-02-26T11:58:58;94437.75;;;13.82;49.16
6134;BME280;3098;42.678;23.364;2024-02-26T12:01:43;94443.94;;;13.98;49.04
6134;BME280;3098;42.678;23.364;2024-02-26T12:04:26;94440.09;;;13.83;48.56
6134;BME280;3098;42.678;23.364;2024-02-26T12:07:00;94434.38;;;13.69;49.16
6134;BME280;3098;42.678;23.364;2024-02-26T12:09:40;94438.81;;;13.28;49.77
6134;BME280;3098;42.678;23.364;2024-02-26T12:12:08;94440.75;;;13.80;48.42
6134;BME280;3098;42.678;23.364;2024-02-26T12:14:50;94445.97;;;13.77;48.39
6134;BME280;3098;42.678;23.364;2024-02-26T12:17:22;94437.75;;;13.94;48.06
6134;BME280;3098;42.678;23.364;2024-02-26T12:19:47;94436.81;;;14.15;48.21
6134;BME280;3098;42.678;23.364;2024-02-26T12:22:14;94442.25;;;14.62;46.18
6134;BME280;3098;42.678;23.364;2024-02-26T12:24:41;94435.81;;;14.35;46.90
6134;BME280;3098;42.678;23.364;2024-02-26T12:27:09;94439.28;;;14.36;46.54
6134;BME280;3098;42.678;23.364;2024-02-26T12:29:34;94435.75;;;13.91;46.96
6134;BME280;3098;42.678;23.364;2024-02-26T12:32:01;94438.72;;;14.02;47.49
6134;BME280;3098;42.678;23.364;2024-02-26T12:34:27;94443.75;;;14.19;46.25
6134;BME280;3098;42.678;23.364;2024-02-26T12:36:54;94446.53;;;14.51;46.18
6134;BME280;3098;42.678;23.364;2024-02-26T12:39:20;94436.66;;;14.23;46.29
6134;BME280;3098;42.678;23.364;2024-02-26T12:41:46;94433.16;;;14.35;45.48
6134;BME280;3098;42.678;23.364;2024-02-26T12:44:17;94438.66;;;14.42;45.03
6134;BME280;3098;42.678;23.364;2024-02-26T12:46:42;94439.56;;;14.90;44.44
6134;BME280;3098;42.678;23.364;2024-02-26T12:49:08;94446.75;;;14.90;43.06
6134;BME280;3098;42.678;23.364;2024-02-26T12:51:34;94430.38;;;15.35;41.51
6134;BME280;3098;42.678;23.364;2024-02-26T12:54:00;94426.69;;;15.08;41.68
6134;BME280;3098;42.678;23.364;2024-02-26T12:56:27;94429.25;;;14.73;42.24
6134;BME280;3098;42.678;23.364;2024-02-26T12:58:53;94436.47;;;14.88;42.42
6134;BME280;3098;42.678;23.364;2024-02-26T13:01:22;94429.34;;;14.48;44.17
6134;BME280;3098;42.678;23.364;2024-02-26T13:03:49;94422.19;;;14.80;43.24
6134;BME280;3098;42.678;23.364;2024-02-26T13:06:15;94443.22;;;14.70;43.36
6134;BME280;3098;42.678;23.364;2024-02-26T13:08:40;94425.63;;;14.81;43.13
6134;BME280;3098;42.678;23.364;2024-02-26T13:11:06;94430.63;;;14.83;43.07
6134;BME280;3098;42.678;23.364;2024-02-26T13:13:32;94429.91;;;14.42;43.88
6134;BME280;3098;42.678;23.364;2024-02-26T13:16:05;94421.84;;;14.66;43.44